createdAt,value
2019-01-20T00:00:02.244Z,16.01
2019-01-20T00:01:02.852Z,15.26
2019-01-20T00:02:03.136Z,14.68
2019-01-20T00:03:03.499Z,14.36
2019-01-20T00:04:03.715Z,14.36
2019-01-20T00:05:03.642Z,13.51
2019-01-20T00:06:03.117Z,13.51
2019-01-20T00:07:02.890Z,14.71
2019-01-20T00:08:03.499Z,14.71
2019-01-20T00:09:03.044Z,14.95
2019-01-20T00:10:03.712Z,13.8
2019-01-20T00:11:03.146Z,16.12
2019-01-20T00:12:03.005Z,16.12
2019-01-20T00:13:03.568Z,13.38
2019-01-20T00:14:03.496Z,13.38
2019-01-20T00:15:03.621Z,13.68
2019-01-20T00:16:03.530Z,13.21
2019-01-20T00:17:03.226Z,14.29
2019-01-20T00:18:02.784Z,14.56
2019-01-20T00:19:03.344Z,14.43
2019-01-20T00:20:02.962Z,14.43
2019-01-20T00:21:03.683Z,13.89
2019-01-20T00:22:02.194Z,14.78
2019-01-20T00:23:03.541Z,13.43
2019-01-20T00:24:03.694Z,13.43
2019-01-20T00:25:03.790Z,13.55
2019-01-20T00:26:03.391Z,14.08
2019-01-20T00:27:03.645Z,12.14
2019-01-20T00:28:02.861Z,14.56
2019-01-20T00:29:03.504Z,14.57
2019-01-20T00:30:03.608Z,14.57
2019-01-20T00:31:03.153Z,13.52
2019-01-20T00:32:02.941Z,13.52
2019-01-20T00:33:02.923Z,12.8
2019-01-20T00:34:03.350Z,12.8
2019-01-20T00:35:03.197Z,13.49
2019-01-20T00:36:03.203Z,13.49
2019-01-20T00:37:03.082Z,14.21
2019-01-20T00:38:03.588Z,14.21
2019-01-20T00:39:02.923Z,13.97
2019-01-20T00:40:03.398Z,13.97
2019-01-20T00:41:03.355Z,14.09
2019-01-20T00:42:03.378Z,14.38
2019-01-20T00:43:03.089Z,13.94
2019-01-20T00:44:02.052Z,13.24
2019-01-20T00:45:03.266Z,12.39
2019-01-20T00:46:03.294Z,12.15
2019-01-20T00:47:03.143Z,14.19
2019-01-20T00:48:02.773Z,14.19
2019-01-20T00:49:02.908Z,13.86
2019-01-20T00:50:03.597Z,14.84
2019-01-20T00:51:03.182Z,13.68
2019-01-20T00:52:03.590Z,12.69
2019-01-20T00:53:03.002Z,11.88
2019-01-20T00:54:03.394Z,12.9
2019-01-20T00:55:02.882Z,12.84
2019-01-20T00:56:03.262Z,14.24
2019-01-20T00:57:03.097Z,14.51
2019-01-20T00:58:03.158Z,14.87
2019-01-20T00:59:02.992Z,13.76
2019-01-20T01:00:03.214Z,13.76
2019-01-20T01:01:03.430Z,13.52
2019-01-20T01:02:03.423Z,13.52
2019-01-20T01:03:03.434Z,14.55
2019-01-20T01:04:03.118Z,13.59
2019-01-20T01:05:03.159Z,13.34
2019-01-20T01:06:03.542Z,12.79
2019-01-20T01:07:02.755Z,12.79
2019-01-20T01:08:02.365Z,13.91
2019-01-20T01:09:02.137Z,13.44
2019-01-20T01:10:03.235Z,13.44
2019-01-20T01:11:03.426Z,14.48
2019-01-20T01:12:02.712Z,14.48
2019-01-20T01:13:03.241Z,12.81
2019-01-20T01:14:03.189Z,12.88
2019-01-20T01:15:03.438Z,13.06
2019-01-20T01:16:03.329Z,13.62
2019-01-20T01:17:03.558Z,13.73
2019-01-20T01:18:03.688Z,12.37
2019-01-20T01:19:02.841Z,13.13
2019-01-20T01:20:03.619Z,12.64
2019-01-20T01:21:02.890Z,12.64
2019-01-20T01:22:03.272Z,14.62
2019-01-20T01:23:02.915Z,14.62
2019-01-20T01:24:03.183Z,14.02
2019-01-20T01:25:03.277Z,12.68
2019-01-20T01:26:03.441Z,14.3
2019-01-20T01:27:03.053Z,12.89
2019-01-20T01:28:03.560Z,12.89
2019-01-20T01:29:03.345Z,13.54
2019-01-20T01:30:01.961Z,14.09
2019-01-20T01:31:01.649Z,14.09
2019-01-20T01:32:01.924Z,14.52
2019-01-20T01:33:03.595Z,13.91
2019-01-20T01:34:02.001Z,13.13
2019-01-20T01:35:03.364Z,12.18
2019-01-20T01:36:02.870Z,12.91
2019-01-20T01:37:03.150Z,12.98
2019-01-20T01:38:03.002Z,12.66
2019-01-20T01:39:03.240Z,12.66
2019-01-20T01:40:03.376Z,12.75
2019-01-20T01:41:03.575Z,12.74
2019-01-20T01:42:03.556Z,12.59
2019-01-20T01:43:02.767Z,13.54
2019-01-20T01:44:03.127Z,12.81
2019-01-20T01:45:03.285Z,12.81
2019-01-20T01:46:02.984Z,13.04
2019-01-20T01:47:03.146Z,13.04
2019-01-20T01:48:03.433Z,12.68
2019-01-20T01:49:03.434Z,13.72
2019-01-20T01:50:04.146Z,13.72
2019-01-20T01:51:03.135Z,12.84
2019-01-20T01:52:03.260Z,11.89
2019-01-20T01:53:03.029Z,12.7
2019-01-20T01:54:01.908Z,14.21
2019-01-20T01:55:02.074Z,13.78
2019-01-20T01:56:03.132Z,13.13
2019-01-20T01:57:03.198Z,13.13
2019-01-20T01:58:03.099Z,12.26
2019-01-20T01:59:03.194Z,12.42
2019-01-20T02:00:03.034Z,12.16
2019-01-20T02:01:02.792Z,12.16
2019-01-20T02:02:02.880Z,12.12
2019-01-20T02:03:03.233Z,12.12
2019-01-20T02:04:02.906Z,12.19
2019-01-20T02:05:03.286Z,12.26
2019-01-20T02:06:02.666Z,14.86
2019-01-20T02:07:03.234Z,14.86
2019-01-20T02:08:03.149Z,12.69
2019-01-20T02:09:03.302Z,12.69
2019-01-20T02:10:03.555Z,12.09
2019-01-20T02:11:03.099Z,12.09
2019-01-20T02:12:03.182Z,12.13
2019-01-20T02:13:03.289Z,12.13
2019-01-20T02:14:03.311Z,13.5
2019-01-20T02:15:02.630Z,13.06
2019-01-20T02:16:03.282Z,12.69
2019-01-20T02:17:03.482Z,12.84
2019-01-20T02:18:03.359Z,12.9
2019-01-20T02:19:02.829Z,12.9
2019-01-20T02:20:03.358Z,12.32
2019-01-20T02:21:02.872Z,14.56
2019-01-20T02:22:03.376Z,13.28
2019-01-20T02:23:02.832Z,12.05
2019-01-20T02:24:03.179Z,13.73
2019-01-20T02:25:03.060Z,13.73
2019-01-20T02:26:03.329Z,12.98
2019-01-20T02:27:03.345Z,13.74
2019-01-20T02:28:03.008Z,12.86
2019-01-20T02:29:03.495Z,12.86
2019-01-20T02:30:03.105Z,11.83
2019-01-20T02:31:02.934Z,11.83
2019-01-20T02:32:02.830Z,13.33
2019-01-20T02:33:03.685Z,13.33
2019-01-20T02:34:03.022Z,14.85
2019-01-20T02:35:02.971Z,14.85
2019-01-20T02:36:03.069Z,12.02
2019-01-20T02:37:02.802Z,12.02
2019-01-20T02:38:03.528Z,12.44
2019-01-20T02:39:02.748Z,13.41
2019-01-20T02:40:02.448Z,13.23
2019-01-20T02:41:02.095Z,14.25
2019-01-20T02:42:02.751Z,11.44
2019-01-20T02:43:03.084Z,11.75
2019-01-20T02:44:03.257Z,12.48
2019-01-20T02:45:03.192Z,12.45
2019-01-20T02:46:03.533Z,13.19
2019-01-20T02:47:03.633Z,11.27
2019-01-20T02:48:03.647Z,12.97
2019-01-20T02:49:03.768Z,12.97
2019-01-20T02:50:03.601Z,12.74
2019-01-20T02:51:03.557Z,14.1
2019-01-20T02:52:03.631Z,11.84
2019-01-20T02:53:03.200Z,11.84
2019-01-20T02:54:03.138Z,12.49
2019-01-20T02:55:02.982Z,12.49
2019-01-20T02:56:02.704Z,12.91
2019-01-20T02:57:03.104Z,12.84
2019-01-20T02:58:03.599Z,12.37
2019-01-20T02:59:03.848Z,12.37
2019-01-20T03:00:02.937Z,11.93
2019-01-20T03:01:02.771Z,11.93
2019-01-20T03:02:02.968Z,11.97
2019-01-20T03:03:03.038Z,11.96
2019-01-20T03:04:03.625Z,11.96
2019-01-20T03:05:02.342Z,13.22
2019-01-20T03:06:03.681Z,12.27
2019-01-20T03:07:03.568Z,12.27
2019-01-20T03:08:03.184Z,11.81
2019-01-20T03:09:03.228Z,11.81
2019-01-20T03:10:03.191Z,13.03
2019-01-20T03:11:03.396Z,12.72
2019-01-20T03:12:03.917Z,12.05
2019-01-20T03:13:02.919Z,12.05
2019-01-20T03:14:02.751Z,12.86
2019-01-20T03:15:03.606Z,11.79
2019-01-20T03:16:02.861Z,11.79
2019-01-20T03:17:02.801Z,12.28
2019-01-20T03:18:02.829Z,12.34
2019-01-20T03:19:03.557Z,12.95
2019-01-20T03:20:03.674Z,12.95
2019-01-20T03:21:03.259Z,11.38
2019-01-20T03:22:02.978Z,11.38
2019-01-20T03:23:02.914Z,12.04
2019-01-20T03:24:03.557Z,12.65
2019-01-20T03:25:02.763Z,12.73
2019-01-20T03:26:03.322Z,12.21
2019-01-20T03:27:03.337Z,13.16
2019-01-20T03:28:01.933Z,11.89
2019-01-20T03:29:02.177Z,11.73
2019-01-20T03:30:03.033Z,11.73
2019-01-20T03:31:03.472Z,12.75
2019-01-20T03:32:03.350Z,12.75
2019-01-20T03:33:03.618Z,12.75
2019-01-20T03:34:03.418Z,12.75
2019-01-20T03:35:03.771Z,12.24
2019-01-20T03:36:03.802Z,12.24
2019-01-20T03:37:03.070Z,11.66
2019-01-20T03:38:02.990Z,11.86
2019-01-20T03:41:03.288Z,11.92
2019-01-20T03:42:03.123Z,12.16
2019-01-20T03:43:03.297Z,12.02
2019-01-20T03:44:02.932Z,12.02
2019-01-20T03:45:03.300Z,12.38
2019-01-20T03:46:03.823Z,12.38
2019-01-20T03:47:03.525Z,13.29
2019-01-20T03:48:02.926Z,13.29
2019-01-20T03:49:02.712Z,12.9
2019-01-20T03:50:03.137Z,12.13
2019-01-20T03:51:03.793Z,11.92
2019-01-20T03:52:03.490Z,11.56
2019-01-20T03:53:02.759Z,12.09
2019-01-20T03:54:03.092Z,12.09
2019-01-20T03:55:03.165Z,14.02
2019-01-20T03:56:02.815Z,12.99
2019-01-20T03:57:03.632Z,11.84
2019-01-20T03:58:03.485Z,11.84
2019-01-20T03:59:03.194Z,11.91
2019-01-20T04:00:03.031Z,11.91
2019-01-20T04:01:02.994Z,11.33
2019-01-20T04:02:03.052Z,11.33
2019-01-20T04:03:03.207Z,12.07
2019-01-20T04:04:02.890Z,12.07
2019-01-20T04:05:02.626Z,11.31
2019-01-20T04:06:03.470Z,11.73
2019-01-20T04:07:03.319Z,13
2019-01-20T04:08:03.043Z,13
2019-01-20T04:09:03.687Z,12.66
2019-01-20T04:10:03.138Z,12.66
2019-01-20T04:11:03.738Z,12.49
2019-01-20T04:12:03.370Z,12.49
2019-01-20T04:13:03.487Z,11.34
2019-01-20T04:14:03.287Z,11.34
2019-01-20T04:15:03.269Z,12.04
2019-01-20T04:16:02.635Z,11.42
2019-01-20T04:17:03.327Z,11.42
2019-01-20T04:18:02.912Z,12.49
2019-01-20T04:19:02.474Z,11.66
2019-01-20T04:20:03.708Z,11.78
2019-01-20T04:21:03.517Z,11.78
2019-01-20T04:22:03.247Z,10.86
2019-01-20T04:23:03.043Z,11.59
2019-01-20T04:24:03.326Z,11.6
2019-01-20T04:25:01.999Z,11.1
2019-01-20T04:26:02.500Z,11.03
2019-01-20T04:27:02.878Z,10.71
2019-01-20T04:28:03.198Z,11.88
2019-01-20T04:29:03.211Z,12.58
2019-01-20T04:30:03.184Z,12.58
2019-01-20T04:31:03.580Z,12.64
2019-01-20T04:32:03.153Z,12.02
2019-01-20T04:33:03.090Z,11.56
2019-01-20T04:34:02.963Z,12.07
2019-01-20T04:35:03.475Z,12.26
2019-01-20T04:36:03.627Z,12.26
2019-01-20T04:37:02.732Z,12.61
2019-01-20T04:38:03.122Z,12.61
2019-01-20T04:39:02.683Z,13.28
2019-01-20T04:40:02.994Z,11.15
2019-01-20T04:41:03.221Z,11.19
2019-01-20T04:42:03.677Z,12.09
2019-01-20T04:43:03.561Z,13.29
2019-01-20T04:44:02.714Z,11.94
2019-01-20T04:45:03.385Z,11.94
2019-01-20T04:46:03.353Z,12.08
2019-01-20T04:47:03.263Z,10.28
2019-01-20T04:48:03.055Z,11.59
2019-01-20T04:49:03.503Z,11.59
2019-01-20T04:50:02.988Z,12.35
2019-01-20T04:51:02.832Z,10.69
2019-01-20T04:52:03.066Z,11.81
2019-01-20T04:53:03.508Z,11.81
2019-01-20T04:54:03.076Z,12.42
2019-01-20T04:55:02.607Z,10.71
2019-01-20T04:56:03.432Z,11.6
2019-01-20T04:57:02.133Z,11.21
2019-01-20T04:58:03.634Z,11.46
2019-01-20T04:59:01.865Z,11.55
2019-01-20T05:00:03.609Z,11.55
2019-01-20T05:01:03.211Z,13
2019-01-20T05:02:03.565Z,11.82
2019-01-20T05:03:03.735Z,11.82
2019-01-20T05:04:03.097Z,12.14
2019-01-20T05:05:03.635Z,12.24
2019-01-20T05:06:03.078Z,11.53
2019-01-20T05:07:02.684Z,11.53
2019-01-20T05:08:02.968Z,12.38
2019-01-20T05:09:03.100Z,12.38
2019-01-20T05:10:03.344Z,13.15
2019-01-20T05:11:02.869Z,13.15
2019-01-20T05:12:02.879Z,13.24
2019-01-20T05:13:03.773Z,13.24
2019-01-20T05:14:03.521Z,14.64
2019-01-20T05:15:03.307Z,12.73
2019-01-20T05:16:03.537Z,12.04
2019-01-20T05:17:03.405Z,12.04
2019-01-20T05:18:03.240Z,11.87
2019-01-20T05:19:03.413Z,11.95
2019-01-20T05:20:03.628Z,13.15
2019-01-20T05:21:02.607Z,12.67
2019-01-20T05:22:03.183Z,11.69
2019-01-20T05:23:02.967Z,11.57
2019-01-20T05:24:03.092Z,11.35
2019-01-20T05:25:03.150Z,12.21
2019-01-20T05:26:03.018Z,12.21
2019-01-20T05:27:02.664Z,10.63
2019-01-20T05:28:03.183Z,12.38
2019-01-20T05:29:03.100Z,12.38
2019-01-20T05:30:03.044Z,10.73
2019-01-20T05:31:03.655Z,10.73
2019-01-20T05:32:03.665Z,12.42
2019-01-20T05:33:02.884Z,9.88
2019-01-20T05:34:03.023Z,11.25
2019-01-20T05:35:03.597Z,11.25
2019-01-20T05:36:02.625Z,10.74
2019-01-20T05:37:02.694Z,10.74
2019-01-20T05:38:03.726Z,10.74
2019-01-20T05:39:03.150Z,12.68
2019-01-20T05:40:03.504Z,10.98
2019-01-20T05:41:03.116Z,10.98
2019-01-20T05:42:02.711Z,12.89
2019-01-20T05:43:02.776Z,13.28
2019-01-20T05:44:02.713Z,14.09
2019-01-20T05:45:03.321Z,13.91
2019-01-20T05:46:02.237Z,12.34
2019-01-20T05:47:02.987Z,12.34
2019-01-20T05:48:01.817Z,12.36
2019-01-20T05:49:03.657Z,13.13
2019-01-20T05:50:03.144Z,12.5
2019-01-20T05:51:03.631Z,13.04
2019-01-20T05:52:03.646Z,12.71
2019-01-20T05:53:02.509Z,12.71
2019-01-20T05:54:03.369Z,12.45
2019-01-20T05:55:02.924Z,12.37
2019-01-20T05:56:02.762Z,12.46
2019-01-20T05:57:02.751Z,12.14
2019-01-20T05:58:03.557Z,12.28
2019-01-20T05:59:03.581Z,12.28
2019-01-20T06:00:03.420Z,12.72
2019-01-20T06:01:02.709Z,12.84
2019-01-20T06:02:02.828Z,13.15
2019-01-20T06:03:03.634Z,13.15
2019-01-20T06:04:03.605Z,13.86
2019-01-20T06:05:02.719Z,13.86
2019-01-20T06:06:03.125Z,12.19
2019-01-20T06:07:03.695Z,12.85
2019-01-20T06:08:02.785Z,12.31
2019-01-20T06:09:03.429Z,12.31
2019-01-20T06:10:02.867Z,13.52
2019-01-20T06:11:03.325Z,13.32
2019-01-20T06:12:02.693Z,12.57
2019-01-20T06:13:03.121Z,13.62
2019-01-20T06:14:02.749Z,13.65
2019-01-20T06:15:02.831Z,14.02
2019-01-20T06:16:03.332Z,14.02
2019-01-20T06:17:02.866Z,13.11
2019-01-20T06:18:02.945Z,13.59
2019-01-20T06:19:03.033Z,14.08
2019-01-20T06:20:03.555Z,14.08
2019-01-20T06:21:03.199Z,13.69
2019-01-20T06:22:03.235Z,13.69
2019-01-20T06:23:02.910Z,13.96
2019-01-20T06:24:03.258Z,16.24
2019-01-20T06:25:02.780Z,13.72
2019-01-20T06:26:02.719Z,12.78
2019-01-20T06:27:02.614Z,14.54
2019-01-20T06:28:02.593Z,13.62
2019-01-20T06:29:02.987Z,13.62
2019-01-20T06:30:03.916Z,15.9
2019-01-20T06:31:03.281Z,13.34
2019-01-20T06:32:03.647Z,13.34
2019-01-20T06:33:03.057Z,14.9
2019-01-20T06:34:03.452Z,14.9
2019-01-20T06:35:03.043Z,12.64
2019-01-20T06:36:03.306Z,13.84
2019-01-20T06:37:03.692Z,14.1
2019-01-20T06:38:03.571Z,12.89
2019-01-20T06:39:03.569Z,14.65
2019-01-20T06:40:03.238Z,14.65
2019-01-20T06:41:02.958Z,14.74
2019-01-20T06:42:03.084Z,15.43
2019-01-20T06:43:03.406Z,16.84
2019-01-20T06:44:03.192Z,16.84
2019-01-20T06:45:02.787Z,15.64
2019-01-20T06:46:02.586Z,15.64
2019-01-20T06:47:02.911Z,14.49
2019-01-20T06:48:03.594Z,14.18
2019-01-20T06:49:03.163Z,15.67
2019-01-20T06:50:03.012Z,15.67
2019-01-20T06:51:01.613Z,14.24
2019-01-20T06:52:02.524Z,14.24
2019-01-20T06:53:03.262Z,14.86
2019-01-20T06:54:03.477Z,14.66
2019-01-20T06:55:03.240Z,14.14
2019-01-20T06:56:03.056Z,16.33
2019-01-20T06:57:03.272Z,15.33
2019-01-20T06:58:02.935Z,14.64
2019-01-20T06:59:03.057Z,15.72
2019-01-20T07:00:03.638Z,14.25
2019-01-20T07:01:03.270Z,14.25
2019-01-20T07:02:03.125Z,15.25
2019-01-20T07:03:02.602Z,14.65
2019-01-20T07:04:03.653Z,14.88
2019-01-20T07:05:02.977Z,15.48
2019-01-20T07:06:03.598Z,15.22
2019-01-20T07:07:02.934Z,14.45
2019-01-20T07:08:03.416Z,14.45
2019-01-20T07:09:03.382Z,15.1
2019-01-20T07:10:03.332Z,16.22
2019-01-20T07:11:03.547Z,15.87
2019-01-20T07:12:03.007Z,15.87
2019-01-20T07:13:11.231Z,15.92
2019-01-20T07:14:03.482Z,15.92
2019-01-20T07:15:02.868Z,15.67
2019-01-20T07:16:03.761Z,14.78
2019-01-20T07:17:03.142Z,16.79
2019-01-20T07:18:03.007Z,16.79
2019-01-20T07:19:03.898Z,16.59
2019-01-20T07:20:02.282Z,16.59
2019-01-20T07:21:02.739Z,15
2019-01-20T07:22:02.715Z,15.87
2019-01-20T07:23:03.217Z,14.72
2019-01-20T07:24:02.918Z,16.64
2019-01-20T07:25:02.842Z,16.82
2019-01-20T07:26:02.734Z,16.22
2019-01-20T07:27:03.427Z,16.61
2019-01-20T07:28:02.807Z,16.76
2019-01-20T07:29:03.461Z,16.76
2019-01-20T07:30:02.621Z,15.45
2019-01-20T07:31:02.844Z,16.52
2019-01-20T07:32:02.762Z,15.99
2019-01-20T07:33:03.422Z,16.3
2019-01-20T07:34:03.468Z,17.34
2019-01-20T07:35:02.848Z,17.34
2019-01-20T07:36:02.820Z,17.48
2019-01-20T07:37:03.385Z,17.24
2019-01-20T07:38:03.636Z,18.95
2019-01-20T07:39:03.117Z,19.14
2019-01-20T07:40:02.912Z,22.65
2019-01-20T07:41:03.605Z,27.02
2019-01-20T07:42:02.157Z,25.77
2019-01-20T07:43:03.157Z,24.55
2019-01-20T07:44:02.838Z,24.55
2019-01-20T07:45:02.990Z,21.84
2019-01-20T07:46:03.627Z,23.89
2019-01-20T07:47:03.033Z,26.04
2019-01-20T07:48:03.487Z,24.76
2019-01-20T07:49:03.672Z,27.15
2019-01-20T07:50:03.151Z,27.15
2019-01-20T07:51:03.411Z,24.89
2019-01-20T07:52:03.882Z,27.48
2019-01-20T07:53:02.711Z,27.55
2019-01-20T07:54:02.688Z,25.24
2019-01-20T07:55:03.699Z,26.18
2019-01-20T07:56:03.516Z,27.64
2019-01-20T07:57:03.069Z,28.03
2019-01-20T07:58:03.550Z,27.62
2019-01-20T07:59:03.375Z,28.27
2019-01-20T08:00:03.127Z,28.27
2019-01-20T08:01:03.295Z,26.58
2019-01-20T08:02:03.477Z,26.52
2019-01-20T08:03:02.842Z,32.29
2019-01-20T08:04:03.153Z,32.29
2019-01-20T08:05:02.934Z,32.29
2019-01-20T08:06:02.788Z,29.21
2019-01-20T08:07:02.836Z,25.51
2019-01-20T08:08:03.522Z,25.51
2019-01-20T08:09:02.702Z,28.2
2019-01-20T08:10:03.336Z,28.2
2019-01-20T08:11:03.356Z,29.26
2019-01-20T08:12:02.921Z,29.26
2019-01-20T08:13:02.629Z,26.99
2019-01-20T08:14:02.430Z,27.66
2019-01-20T08:15:03.319Z,27.66
2019-01-20T08:16:03.309Z,28.21
2019-01-20T08:17:03.046Z,28.21
2019-01-20T08:18:02.687Z,28.46
2019-01-20T08:19:02.824Z,29.66
2019-01-20T08:20:02.990Z,26.06
2019-01-20T08:21:02.836Z,27.21
2019-01-20T08:22:03.081Z,26.93
2019-01-20T08:23:03.592Z,29.58
2019-01-20T08:24:03.185Z,29.58
2019-01-20T08:25:03.140Z,29.07
2019-01-20T08:26:02.861Z,28.78
2019-01-20T08:27:03.323Z,29.86
2019-01-20T08:28:03.537Z,28.59
2019-01-20T08:29:02.858Z,27.04
2019-01-20T08:30:03.358Z,27.62
2019-01-20T08:31:03.508Z,31.61
2019-01-20T08:32:03.442Z,31.61
2019-01-20T08:33:03.599Z,28.18
2019-01-20T08:34:03.207Z,28.18
2019-01-20T08:35:03.773Z,29.49
2019-01-20T08:36:03.187Z,29.49
2019-01-20T08:37:04.443Z,29.64
2019-01-20T08:38:03.533Z,29.64
2019-01-20T08:39:02.724Z,29.52
2019-01-20T08:40:03.433Z,29.52
2019-01-20T08:41:02.936Z,26.99
2019-01-20T08:42:02.740Z,29.91
2019-01-20T08:43:02.815Z,29.43
2019-01-20T08:44:03.496Z,29.83
2019-01-20T08:45:03.227Z,28.51
2019-01-20T08:46:03.255Z,28.69
2019-01-20T08:47:02.966Z,27.52
2019-01-20T08:48:03.596Z,27.52
2019-01-20T08:49:03.755Z,29.62
2019-01-20T08:50:03.269Z,27.36
2019-01-20T08:51:03.567Z,25.54
2019-01-20T08:52:03.691Z,25.54
2019-01-20T08:53:03.595Z,30.34
2019-01-20T08:54:03.555Z,30.34
2019-01-20T08:55:03.754Z,28.31
2019-01-20T08:56:03.512Z,28.31
2019-01-20T08:57:02.860Z,26.9
2019-01-20T08:58:03.619Z,28.68
2019-01-20T08:59:03.026Z,25.34
2019-01-20T09:00:03.475Z,25.34
2019-01-20T09:01:03.173Z,31.05
2019-01-20T09:02:02.838Z,31.05
2019-01-20T09:03:03.212Z,28.95
2019-01-20T09:04:03.106Z,29.61
2019-01-20T09:05:02.812Z,27.68
2019-01-20T09:06:02.784Z,27.97
2019-01-20T09:07:02.234Z,31.27
2019-01-20T09:08:01.871Z,30.41
2019-01-20T09:09:03.659Z,27.68
2019-01-20T09:10:03.533Z,30.03
2019-01-20T09:11:03.707Z,30.51
2019-01-20T09:12:02.946Z,30.51
2019-01-20T09:13:03.670Z,27.58
2019-01-20T09:14:03.129Z,30.11
2019-01-20T09:15:03.471Z,28.97
2019-01-20T09:16:03.311Z,25.71
2019-01-20T09:17:02.966Z,25.71
2019-01-20T09:18:03.519Z,29.73
2019-01-20T09:19:03.442Z,29.73
2019-01-20T09:20:03.610Z,28.34
2019-01-20T09:21:02.747Z,31.44
2019-01-20T09:22:03.035Z,30.6
2019-01-20T09:23:03.165Z,29.87
2019-01-20T09:24:02.827Z,30.02
2019-01-20T09:25:03.754Z,28.95
2019-01-20T09:26:03.421Z,28.95
2019-01-20T09:27:03.114Z,30.02
2019-01-20T09:28:02.871Z,30.02
2019-01-20T09:29:03.137Z,29.89
2019-01-20T09:30:03.465Z,29.2
2019-01-20T09:31:03.352Z,29.86
2019-01-20T09:32:02.778Z,29.86
2019-01-20T09:33:03.635Z,28.48
2019-01-20T09:34:03.246Z,29.52
2019-01-20T09:35:02.863Z,30.92
2019-01-20T09:36:03.451Z,30.92
2019-01-20T09:37:03.587Z,28.32
2019-01-20T09:38:02.748Z,30.51
2019-01-20T09:39:03.204Z,30.48
2019-01-20T09:40:03.390Z,30.14
2019-01-20T09:41:05.037Z,30.14
2019-01-20T09:42:03.098Z,29.62
2019-01-20T09:43:04.750Z,30.75
2019-01-20T09:44:03.457Z,29.18
2019-01-20T09:45:02.984Z,30.8
2019-01-20T09:46:03.335Z,28.81
2019-01-20T09:47:02.118Z,28.62
2019-01-20T09:48:03.291Z,28.62
2019-01-20T09:49:02.633Z,29.54
2019-01-20T09:50:03.775Z,28.92
2019-01-20T09:51:03.055Z,30.86
2019-01-20T09:52:03.464Z,31.52
2019-01-20T09:53:02.855Z,28.6
2019-01-20T09:54:03.063Z,31.56
2019-01-20T09:55:03.538Z,31.11
2019-01-20T09:56:03.360Z,27.69
2019-01-20T09:57:03.093Z,27.69
2019-01-20T09:58:02.998Z,30.42
2019-01-20T09:59:03.367Z,29.82
2019-01-20T10:00:02.845Z,29.82
2019-01-20T10:01:03.041Z,26.72
2019-01-20T10:02:03.015Z,32.09
2019-01-20T10:03:03.555Z,30.9
2019-01-20T10:04:03.472Z,30.9
2019-01-20T10:05:02.914Z,30.44
2019-01-20T10:06:03.791Z,26.91
2019-01-20T10:07:03.090Z,30.8
2019-01-20T10:08:02.751Z,32.72
2019-01-20T10:09:02.810Z,34.41
2019-01-20T10:10:02.742Z,32.89
2019-01-20T10:11:01.866Z,32.31
2019-01-20T10:12:03.101Z,31.07
2019-01-20T10:13:03.136Z,32.27
2019-01-20T10:14:03.614Z,31.05
2019-01-20T10:15:02.968Z,31.31
2019-01-20T10:16:02.681Z,34.29
2019-01-20T10:17:02.899Z,33.78
2019-01-20T10:18:03.537Z,32.24
2019-01-20T10:19:02.901Z,33.11
2019-01-20T10:20:03.691Z,33.11
2019-01-20T10:21:03.651Z,31.13
2019-01-20T10:22:03.323Z,30.4
2019-01-20T10:23:03.347Z,31.81
2019-01-20T10:24:02.940Z,31.81
2019-01-20T10:25:02.916Z,31.48
2019-01-20T10:26:03.681Z,29.76
2019-01-20T10:27:03.003Z,30.79
2019-01-20T10:28:02.860Z,30.79
2019-01-20T10:29:03.465Z,31.95
2019-01-20T10:30:03.282Z,28.89
2019-01-20T10:31:02.886Z,32.14
2019-01-20T10:32:02.183Z,30.28
2019-01-20T10:33:03.693Z,30.28
2019-01-20T10:34:02.722Z,30.8
2019-01-20T10:35:03.535Z,29.81
2019-01-20T10:36:02.981Z,29.81
2019-01-20T10:37:02.807Z,31.11
2019-01-20T10:38:03.199Z,31.11
2019-01-20T10:39:02.926Z,29.96
2019-01-20T10:40:03.021Z,29.96
2019-01-20T10:41:03.566Z,31.39
2019-01-20T10:42:03.433Z,31.39
2019-01-20T10:43:03.179Z,32.54
2019-01-20T10:44:03.056Z,32.54
2019-01-20T10:45:03.504Z,30.84
2019-01-20T10:46:03.149Z,32.16
2019-01-20T10:47:02.782Z,31.27
2019-01-20T10:48:02.846Z,31.27
2019-01-20T10:49:03.550Z,30.63
2019-01-20T10:50:03.317Z,32.3
2019-01-20T10:51:03.484Z,32.51
2019-01-20T10:52:03.189Z,32.51
2019-01-20T10:53:03.493Z,32.19
2019-01-20T10:54:03.477Z,32.19
2019-01-20T10:55:03.201Z,32.04
2019-01-20T10:56:01.834Z,29.82
2019-01-20T10:57:02.781Z,29.82
2019-01-20T10:58:02.790Z,42.8
2019-01-20T10:59:02.915Z,42.8
2019-01-20T11:00:03.698Z,35.14
2019-01-20T11:01:02.934Z,34.7
2019-01-20T11:02:03.044Z,59.69
2019-01-20T11:03:03.266Z,41.94
2019-01-20T11:04:03.048Z,42.94
2019-01-20T11:05:03.661Z,36.35
2019-01-20T11:06:02.818Z,31.08
2019-01-20T11:07:03.656Z,31.05
2019-01-20T11:08:03.166Z,28.97
2019-01-20T11:09:03.870Z,30.02
2019-01-20T11:10:03.340Z,29.94
2019-01-20T11:11:02.889Z,30.07
2019-01-20T11:12:03.650Z,29.2
2019-01-20T11:13:03.277Z,29.2
2019-01-20T11:14:01.782Z,29.55
2019-01-20T11:15:03.195Z,30.62
2019-01-20T11:16:02.786Z,30.61
2019-01-20T11:17:03.505Z,30.61
2019-01-20T11:18:02.701Z,28.81
2019-01-20T11:19:02.833Z,30.19
2019-01-20T11:20:03.478Z,31.56
2019-01-20T11:21:03.386Z,31.56
2019-01-20T11:22:03.131Z,29.99
2019-01-20T11:23:01.741Z,31.41
2019-01-20T11:24:03.466Z,31.41
2019-01-20T11:25:03.022Z,27.94
2019-01-20T11:26:03.519Z,27.94
2019-01-20T11:27:02.998Z,28.89
2019-01-20T11:28:03.370Z,28.54
2019-01-20T11:29:03.208Z,28.48
2019-01-20T11:30:03.321Z,28.24
2019-01-20T11:31:03.623Z,28.24
2019-01-20T11:32:02.839Z,30
2019-01-20T11:33:02.738Z,30
2019-01-20T11:34:03.073Z,28.85
2019-01-20T11:35:03.419Z,28.85
2019-01-20T11:36:03.522Z,29.33
2019-01-20T11:37:03.281Z,28.58
2019-01-20T11:38:03.193Z,28.58
2019-01-20T11:39:02.858Z,27.13
2019-01-20T11:40:03.566Z,27.55
2019-01-20T11:41:03.600Z,27.55
2019-01-20T11:42:01.908Z,29.38
2019-01-20T11:43:02.754Z,28.89
2019-01-20T11:44:02.839Z,29.65
2019-01-20T11:45:03.062Z,31.63
2019-01-20T11:46:03.084Z,28.22
2019-01-20T11:47:03.034Z,28.15
2019-01-20T11:48:03.094Z,28.63
2019-01-20T11:49:03.002Z,29.58
2019-01-20T11:50:03.348Z,28.97
2019-01-20T11:51:03.296Z,28.97
2019-01-20T11:52:03.128Z,28.25
2019-01-20T11:53:03.106Z,28.04
2019-01-20T11:54:03.599Z,28.65
2019-01-20T11:55:02.898Z,31.83
2019-01-20T11:56:04.970Z,29.12
2019-01-20T11:57:03.014Z,27.92
2019-01-20T11:58:04.172Z,27.92
2019-01-20T11:59:03.427Z,27.75
2019-01-20T12:00:02.630Z,27.75
2019-01-20T12:01:02.916Z,28.15
2019-01-20T12:02:03.571Z,28.15
2019-01-20T12:03:03.610Z,28.38
2019-01-20T12:04:03.566Z,28.38
2019-01-20T12:05:03.107Z,29.01
2019-01-20T12:06:02.884Z,28.82
2019-01-20T12:07:02.778Z,26.28
2019-01-20T12:08:03.263Z,26.28
2019-01-20T12:09:03.155Z,26.54
2019-01-20T12:10:02.368Z,29.09
2019-01-20T12:11:03.726Z,29.09
2019-01-20T12:12:03.221Z,29.09
2019-01-20T12:13:02.549Z,27.52
2019-01-20T12:14:02.129Z,27.52
2019-01-20T12:15:03.182Z,26.91
2019-01-20T12:16:03.330Z,26.91
2019-01-20T12:17:02.789Z,30.02
2019-01-20T12:18:02.724Z,28.4
2019-01-20T12:19:03.568Z,26.77
2019-01-20T12:20:07.002Z,27.93
2019-01-20T12:21:03.573Z,28.22
2019-01-20T12:22:03.304Z,28.22
2019-01-20T12:23:03.276Z,31.53
2019-01-20T12:24:02.773Z,30.32
2019-01-20T12:25:03.108Z,29.36
2019-01-20T12:26:02.812Z,29.36
2019-01-20T12:27:03.081Z,31.72
2019-01-20T12:28:02.988Z,31.72
2019-01-20T12:29:03.456Z,28.58
2019-01-20T12:30:03.315Z,30.12
2019-01-20T12:31:02.733Z,29.02
2019-01-20T12:32:03.519Z,27.29
2019-01-20T12:33:02.647Z,29.14
2019-01-20T12:34:03.181Z,30.97
2019-01-20T12:35:02.290Z,29.25
2019-01-20T12:36:02.663Z,33.51
2019-01-20T12:37:02.300Z,30.99
2019-01-20T12:38:02.767Z,29.91
2019-01-20T12:39:03.032Z,32.54
2019-01-20T12:40:03.505Z,35.96
2019-01-20T12:41:03.509Z,34.84
2019-01-20T12:42:02.632Z,33.94
2019-01-20T12:43:03.423Z,30.09
2019-01-20T12:44:02.949Z,29.64
2019-01-20T12:45:03.708Z,28.84
2019-01-20T12:46:03.261Z,28.65
2019-01-20T12:47:02.695Z,28.65
2019-01-20T12:48:01.933Z,28.55
2019-01-20T12:49:02.400Z,24.49
2019-01-20T12:50:03.785Z,27.48
2019-01-20T12:51:03.301Z,28.85
2019-01-20T12:52:01.871Z,28.78
2019-01-20T12:53:03.549Z,28.78
2019-01-20T12:54:03.361Z,28.05
2019-01-20T12:55:03.219Z,28.5
2019-01-20T12:56:03.170Z,28.5